createdAt,value
2022-09-15T00:01:21.270Z,11.55
2022-09-15T00:03:49.883Z,11.02
2022-09-15T00:06:18.822Z,11.80
2022-09-15T00:08:47.161Z,15.05
2022-09-15T00:11:18.328Z,16.48
2022-09-15T00:13:47.025Z,15.35
2022-09-15T00:16:15.858Z,15.50
2022-09-15T00:18:46.012Z,14.50
2022-09-15T00:21:16.256Z,13.63
2022-09-15T00:23:44.617Z,15.05
2022-09-15T00:26:14.065Z,14.35
2022-09-15T00:28:42.809Z,13.85
2022-09-15T00:31:12.162Z,15.45
2022-09-15T00:33:40.547Z,12.32
2022-09-15T00:36:12.608Z,15.57
2022-09-15T00:38:41.528Z,14.93
2022-09-15T00:41:11.310Z,14.95
2022-09-15T00:43:45.117Z,11.20
2022-09-15T00:46:13.975Z,11.70
2022-09-15T00:48:44.171Z,11.13
2022-09-15T00:51:15.410Z,12.27
2022-09-15T00:53:44.459Z,11.40
2022-09-15T00:56:13.394Z,13.40
2022-09-15T00:58:43.871Z,13.23
2022-09-15T01:01:12.628Z,15.57
2022-09-15T01:03:41.179Z,15.98
2022-09-15T01:06:13.681Z,13.85
2022-09-15T01:08:46.100Z,11.57
2022-09-15T01:11:16.999Z,13.23
2022-09-15T01:15:48.155Z,13.07
2022-09-15T01:18:20.317Z,14.45
2022-09-15T01:20:56.657Z,15.38
2022-09-15T01:23:42.852Z,13.93
2022-09-15T01:26:25.967Z,14.32
2022-09-15T01:29:12.342Z,14.68
2022-09-15T01:32:03.332Z,13.90
2022-09-15T01:34:33.531Z,12.40
2022-09-15T01:37:04.481Z,15.95
2022-09-15T01:39:34.991Z,15.38
2022-09-15T01:42:05.534Z,16.63
2022-09-15T01:44:35.897Z,17.17
2022-09-15T01:47:07.868Z,15.70
2022-09-15T01:49:38.262Z,15.25
2022-09-15T01:52:07.146Z,14.10
2022-09-15T01:54:37.091Z,16.88
2022-09-15T01:57:05.733Z,16.52
2022-09-15T01:59:34.089Z,14.98
2022-09-15T02:02:05.815Z,13.38
2022-09-15T02:04:38.200Z,12.90
2022-09-15T02:07:11.692Z,13.85
2022-09-15T02:09:42.077Z,17.75
2022-09-15T02:12:12.631Z,16.73
2022-09-15T02:14:48.146Z,15.68
2022-09-15T02:17:19.038Z,14.90
2022-09-15T02:19:51.748Z,16.63
2022-09-15T02:22:23.299Z,17.05
2022-09-15T02:24:53.834Z,13.70
2022-09-15T02:27:25.215Z,15.00
2022-09-15T02:29:55.612Z,12.48
2022-09-15T02:32:25.292Z,14.05
2022-09-15T02:34:55.787Z,18.23
2022-09-15T02:37:25.093Z,14.20
2022-09-15T02:39:55.599Z,17.27
2022-09-15T02:42:25.478Z,18.67
2022-09-15T02:44:53.960Z,15.02
2022-09-15T02:47:22.469Z,18.10
2022-09-15T02:49:50.816Z,19.15
2022-09-15T02:52:20.533Z,15.30
2022-09-15T02:54:50.520Z,17.65
2022-09-15T02:57:19.149Z,16.27
2022-09-15T03:00:05.286Z,19.20
2022-09-15T03:02:34.028Z,17.75
2022-09-15T03:05:02.375Z,14.35
2022-09-15T03:07:32.099Z,17.65
2022-09-15T03:10:00.533Z,17.65
2022-09-15T03:12:29.034Z,14.82
2022-09-15T03:14:57.426Z,17.45
2022-09-15T03:17:25.781Z,18.90
2022-09-15T03:19:54.095Z,16.90
2022-09-15T03:22:22.809Z,16.67
2022-09-15T03:24:52.495Z,18.42
2022-09-15T03:27:20.866Z,17.40
2022-09-15T03:29:49.431Z,15.23
2022-09-15T03:32:17.785Z,15.20
2022-09-15T03:34:46.133Z,21.45
2022-09-15T03:37:14.471Z,16.10
2022-09-15T03:39:42.819Z,17.70
2022-09-15T03:42:12.550Z,18.25
2022-09-15T03:44:40.868Z,19.33
2022-09-15T03:47:09.306Z,18.17
2022-09-15T03:49:37.646Z,18.95
2022-09-15T03:52:06.123Z,14.65
2022-09-15T03:54:35.496Z,15.93
2022-09-15T03:57:04.208Z,15.77
2022-09-15T03:59:33.946Z,14.48
2022-09-15T04:02:02.353Z,17.23
2022-09-15T04:04:31.486Z,16.88
2022-09-15T04:06:59.825Z,15.73
2022-09-15T04:09:28.424Z,20.38
2022-09-15T04:11:56.907Z,17.80
2022-09-15T04:14:25.245Z,19.10
2022-09-15T04:16:54.959Z,17.73
2022-09-15T04:19:23.288Z,16.52
2022-09-15T04:21:51.650Z,17.88
2022-09-15T04:24:20.126Z,19.58
2022-09-15T04:26:48.552Z,15.48
2022-09-15T04:29:17.611Z,21.35
2022-09-15T04:31:46.814Z,16.90
2022-09-15T04:34:16.637Z,17.52
2022-09-15T04:36:45.229Z,15.65
2022-09-15T04:39:13.978Z,16.45
2022-09-15T04:41:42.923Z,16.48
2022-09-15T04:44:11.271Z,16.10
2022-09-15T04:46:39.774Z,16.73
2022-09-15T04:49:08.175Z,15.70
2022-09-15T04:51:37.876Z,16.00
2022-09-15T04:54:06.484Z,19.13
2022-09-15T04:56:34.844Z,17.48
2022-09-15T04:59:04.306Z,20.77
2022-09-15T05:01:36.237Z,16.20
2022-09-15T05:04:05.946Z,18.85
2022-09-15T05:06:34.961Z,14.63
2022-09-15T05:09:10.053Z,20.33
2022-09-15T05:11:39.334Z,17.73
2022-09-15T05:14:08.113Z,17.38
2022-09-15T05:16:36.554Z,16.88
2022-09-15T05:19:05.168Z,19.55
2022-09-15T05:21:33.539Z,17.55
2022-09-15T05:24:01.885Z,18.40
2022-09-15T05:26:32.007Z,20.75
2022-09-15T05:29:00.427Z,18.35
2022-09-15T05:31:30.921Z,23.33
2022-09-15T05:33:59.547Z,22.42
2022-09-15T05:36:27.876Z,15.73
2022-09-15T05:38:57.399Z,20.77
2022-09-15T05:41:26.228Z,18.40
2022-09-15T05:43:56.986Z,19.42
2022-09-15T05:46:26.840Z,19.08
2022-09-15T05:48:55.480Z,18.77
2022-09-15T05:51:24.249Z,18.13
2022-09-15T05:53:52.719Z,17.65
2022-09-15T05:56:21.307Z,19.63
2022-09-15T05:58:50.102Z,18.95
2022-09-15T06:01:20.509Z,21.55
2022-09-15T06:03:49.174Z,17.45
2022-09-15T06:06:17.861Z,17.55
2022-09-15T06:08:50.056Z,21.02
2022-09-15T06:11:22.096Z,16.48
2022-09-15T06:13:50.814Z,18.70
2022-09-15T06:16:22.867Z,18.40
2022-09-15T06:18:52.246Z,20.90
2022-09-15T06:21:21.843Z,17.25
2022-09-15T06:23:54.557Z,19.63
2022-09-15T06:26:23.214Z,22.73
2022-09-15T06:28:52.422Z,19.90
2022-09-15T06:31:22.384Z,20.08
2022-09-15T06:33:52.157Z,20.55
2022-09-15T06:36:21.337Z,19.85
2022-09-15T06:38:49.844Z,18.20
2022-09-15T06:41:18.199Z,19.50
2022-09-15T06:43:46.843Z,17.85
2022-09-15T06:46:16.149Z,18.77
2022-09-15T06:48:48.294Z,20.95
2022-09-15T06:51:18.801Z,21.85
2022-09-15T06:53:47.598Z,19.20
2022-09-15T06:56:17.042Z,18.48
2022-09-15T06:58:45.928Z,22.08
2022-09-15T07:01:15.264Z,20.92
2022-09-15T07:03:44.870Z,20.48
2022-09-15T07:06:14.929Z,21.27
2022-09-15T07:08:43.386Z,24.92
2022-09-15T07:11:12.250Z,19.27
2022-09-15T07:13:40.625Z,24.88
2022-09-15T07:16:09.735Z,20.48
2022-09-15T07:18:42.993Z,24.38
2022-09-15T07:21:13.765Z,26.00
2022-09-15T07:23:43.737Z,25.02
2022-09-15T07:26:13.097Z,24.40
2022-09-15T07:28:42.065Z,26.70
2022-09-15T07:31:11.237Z,23.73
2022-09-15T07:33:39.923Z,22.27
2022-09-15T07:36:09.289Z,26.35
2022-09-15T07:38:40.493Z,24.67
2022-09-15T07:41:11.024Z,22.92
2022-09-15T07:43:39.670Z,19.73
2022-09-15T07:46:08.730Z,18.02
2022-09-15T07:48:37.223Z,18.73
2022-09-15T07:51:05.686Z,17.98
2022-09-15T07:53:34.134Z,17.42
2022-09-15T07:56:02.506Z,17.30
2022-09-15T07:58:32.243Z,16.63
2022-09-15T08:01:03.024Z,12.07
2022-09-15T08:03:31.541Z,14.25
2022-09-15T08:06:00.385Z,13.85
2022-09-15T08:08:28.939Z,16.27
2022-09-15T08:10:57.732Z,11.98
2022-09-15T08:13:26.135Z,11.75
2022-09-15T08:15:55.888Z,10.35
2022-09-15T08:18:24.269Z,12.68
2022-09-15T08:20:52.656Z,12.05
2022-09-15T08:23:21.080Z,10.88
2022-09-15T08:25:51.545Z,11.15
2022-09-15T08:28:19.998Z,8.48
2022-09-15T08:30:48.398Z,9.90
2022-09-15T08:33:18.197Z,8.20
2022-09-15T08:35:46.531Z,8.38
2022-09-15T08:38:14.934Z,13.35
2022-09-15T08:40:45.382Z,9.50
2022-09-15T08:43:17.992Z,9.68
2022-09-15T08:45:49.567Z,9.90
2022-09-15T08:48:22.269Z,5.65
2022-09-15T08:50:52.361Z,8.85
2022-09-15T08:53:22.467Z,5.53
2022-09-15T08:55:51.784Z,9.77
2022-09-15T08:58:20.830Z,6.78
2022-09-15T09:00:51.884Z,12.13
2022-09-15T09:03:42.789Z,11.32
2022-09-15T09:06:17.614Z,8.70
2022-09-15T09:08:55.284Z,9.20
2022-09-15T09:11:30.349Z,6.40
2022-09-15T09:14:03.876Z,9.18
2022-09-15T09:16:38.720Z,7.47
2022-09-15T09:19:16.670Z,9.30
2022-09-15T09:21:46.905Z,9.50
2022-09-15T09:24:17.012Z,8.63
2022-09-15T09:26:49.326Z,6.10
2022-09-15T09:29:18.897Z,9.20
2022-09-15T09:31:49.082Z,5.57
2022-09-15T09:34:22.253Z,11.77
2022-09-15T09:36:54.179Z,5.05
2022-09-15T09:39:22.752Z,7.63
2022-09-15T09:41:51.409Z,10.05
2022-09-15T09:44:21.617Z,6.28
2022-09-15T09:46:50.153Z,10.02
2022-09-15T09:49:23.367Z,8.55
2022-09-15T09:51:53.053Z,9.60
2022-09-15T09:54:22.344Z,6.18
2022-09-15T09:56:51.588Z,7.55
2022-09-15T09:59:50.229Z,7.82
2022-09-15T10:02:19.891Z,5.88
2022-09-15T10:04:50.735Z,4.97
2022-09-15T10:07:23.386Z,7.72
2022-09-15T10:09:59.325Z,7.00
2022-09-15T10:12:31.589Z,4.00
2022-09-15T10:15:01.647Z,6.10
2022-09-15T10:17:39.540Z,5.18
2022-09-15T10:20:22.858Z,7.13
2022-09-15T10:22:51.281Z,8.07
2022-09-15T10:25:49.219Z,8.65
2022-09-15T10:28:21.808Z,8.13
2022-09-15T10:31:05.090Z,6.57
2022-09-15T10:33:35.070Z,4.80
2022-09-15T10:36:06.616Z,7.45
2022-09-15T10:38:38.046Z,3.15
2022-09-15T10:41:12.643Z,3.83
2022-09-15T10:43:46.686Z,3.50
2022-09-15T10:46:20.447Z,4.47
2022-09-15T10:48:54.956Z,4.78
2022-09-15T10:51:30.429Z,4.95
2022-09-15T10:54:06.374Z,7.38
2022-09-15T10:56:36.650Z,6.00
2022-09-15T10:59:09.518Z,9.15
2022-09-15T11:01:41.933Z,10.35
2022-09-15T11:04:27.494Z,9.68
2022-09-15T11:07:01.094Z,6.95
2022-09-15T11:09:32.103Z,6.80
2022-09-15T11:12:08.761Z,5.40
2022-09-15T11:14:42.597Z,6.28
2022-09-15T11:17:18.708Z,5.97
2022-09-15T11:19:56.566Z,4.82
2022-09-15T11:22:28.911Z,9.43
2022-09-15T11:24:58.447Z,5.60
2022-09-15T11:27:29.695Z,13.55
2022-09-15T11:30:07.433Z,5.25
2022-09-15T11:32:40.051Z,6.53
2022-09-15T11:35:29.220Z,6.13
2022-09-15T11:38:01.363Z,7.60
2022-09-15T11:40:32.518Z,5.70
2022-09-15T11:43:02.588Z,4.85
2022-09-15T11:45:34.541Z,8.30
2022-09-15T11:48:06.290Z,8.05
2022-09-15T11:50:36.404Z,6.47
2022-09-15T11:53:10.314Z,7.70
2022-09-15T11:55:41.680Z,7.18
2022-09-15T11:58:22.002Z,7.97
2022-09-15T12:00:54.730Z,8.23
2022-09-15T12:03:25.946Z,8.45
2022-09-15T12:05:56.492Z,9.02
2022-09-15T12:08:32.469Z,5.88
2022-09-15T12:11:02.909Z,3.65
2022-09-15T12:13:31.550Z,7.47
2022-09-15T12:16:02.083Z,6.32
2022-09-15T12:18:39.375Z,11.05
2022-09-15T12:21:14.415Z,7.97
2022-09-15T12:23:48.348Z,7.47
2022-09-15T12:26:18.850Z,9.02
2022-09-15T12:28:55.309Z,10.10
2022-09-15T12:31:29.374Z,5.82
2022-09-15T12:33:58.927Z,7.88
2022-09-15T12:36:46.346Z,5.60
2022-09-15T12:39:32.843Z,6.40
2022-09-15T12:42:12.792Z,7.63
2022-09-15T12:44:43.488Z,7.57
2022-09-15T12:47:20.799Z,5.90
2022-09-15T12:49:50.147Z,8.13
2022-09-15T12:52:19.046Z,6.35
2022-09-15T12:54:52.540Z,8.10
2022-09-15T12:57:24.231Z,8.07
2022-09-15T13:00:12.883Z,4.18
2022-09-15T13:02:45.283Z,11.63
2022-09-15T13:05:14.343Z,8.27
2022-09-15T13:07:56.907Z,10.85
2022-09-15T13:10:43.081Z,7.38
2022-09-15T13:13:32.671Z,10.30
2022-09-15T13:16:03.139Z,12.27
2022-09-15T13:18:32.831Z,10.98
2022-09-15T13:21:05.393Z,11.07
2022-09-15T13:23:37.085Z,13.80
2022-09-15T13:26:07.777Z,8.82
2022-09-15T13:28:39.050Z,8.45
2022-09-15T13:31:15.485Z,8.40
2022-09-15T13:39:47.959Z,3.95
2022-09-15T13:42:22.724Z,5.80
2022-09-15T13:45:14.794Z,3.10
2022-09-15T13:47:54.368Z,4.03
2022-09-15T13:50:25.242Z,6.47
2022-09-15T13:52:59.100Z,7.18
2022-09-15T13:55:40.943Z,4.05
2022-09-15T14:01:02.021Z,2.45
2022-09-15T14:03:37.103Z,7.38
2022-09-15T14:06:12.196Z,5.63
2022-09-15T14:08:41.680Z,5.18
2022-09-15T14:11:11.920Z,4.40
2022-09-15T14:13:46.278Z,4.20
2022-09-15T14:16:24.722Z,4.13
2022-09-15T14:18:57.695Z,13.02
2022-09-15T14:21:26.928Z,3.28
2022-09-15T14:23:56.191Z,6.13
2022-09-15T14:26:25.789Z,5.80
2022-09-15T14:28:55.538Z,6.43
2022-09-15T14:31:31.577Z,4.93
2022-09-15T14:34:01.505Z,6.70
2022-09-15T14:36:31.894Z,4.47
2022-09-15T14:39:09.042Z,6.13
2022-09-15T14:41:37.756Z,6.22
2022-09-15T14:45:55.173Z,5.00
2022-09-15T14:47:13.822Z,5.43
2022-09-15T14:49:43.636Z,5.57
2022-09-15T14:52:22.706Z,10.07
2022-09-15T14:54:51.721Z,6.07
2022-09-15T14:57:22.430Z,3.85
2022-09-15T14:59:53.378Z,7.32
2022-09-15T15:02:24.245Z,4.30
2022-09-15T15:04:57.517Z,6.85
2022-09-15T15:07:27.720Z,5.40
2022-09-15T15:09:58.109Z,8.05
2022-09-15T15:12:28.884Z,4.45
2022-09-15T15:14:57.833Z,11.98
2022-09-15T15:17:28.055Z,7.15
2022-09-15T15:20:02.375Z,8.15
2022-09-15T15:22:30.983Z,3.28
2022-09-15T15:24:59.692Z,4.78
2022-09-15T15:27:40.493Z,4.80
2022-09-15T15:30:29.656Z,4.05
2022-09-15T15:32:59.080Z,4.82
2022-09-15T15:35:28.842Z,3.50
2022-09-15T15:38:04.626Z,5.45
2022-09-15T15:40:33.339Z,5.57
2022-09-15T15:43:04.023Z,3.10
2022-09-15T15:45:32.843Z,4.03
2022-09-15T15:48:02.602Z,2.30
2022-09-15T15:50:33.384Z,3.55
2022-09-15T15:53:02.785Z,4.55
2022-09-15T15:55:38.273Z,8.50
2022-09-15T15:58:07.146Z,4.65
2022-09-15T16:00:38.333Z,4.72
2022-09-15T16:03:07.164Z,5.80
2022-09-15T16:05:36.976Z,4.53
2022-09-15T16:08:06.421Z,4.65
2022-09-15T16:10:40.822Z,4.07
2022-09-15T16:13:09.715Z,7.30
2022-09-15T16:15:38.081Z,3.80
2022-09-15T16:18:06.651Z,3.28
2022-09-15T16:20:35.053Z,5.97
2022-09-15T16:23:04.793Z,6.22
2022-09-15T16:25:36.225Z,5.55
2022-09-15T16:28:04.735Z,4.80
2022-09-15T16:30:33.476Z,4.57
2022-09-15T16:33:02.119Z,5.45
2022-09-15T16:35:36.642Z,3.45
2022-09-15T16:38:06.340Z,4.03
2022-09-15T16:40:34.758Z,4.32
2022-09-15T16:43:03.110Z,3.15
2022-09-15T16:45:36.522Z,3.53
2022-09-15T16:48:08.386Z,2.65
2022-09-15T16:50:39.886Z,4.07
2022-09-15T16:53:15.046Z,2.90
2022-09-15T16:55:46.377Z,4.35
2022-09-15T16:58:16.031Z,3.22
2022-09-15T17:00:45.478Z,1.77
2022-09-15T17:03:19.143Z,3.80
2022-09-15T17:05:50.067Z,3.28
2022-09-15T17:08:21.226Z,5.80
2022-09-15T17:10:50.617Z,3.40
2022-09-15T17:13:20.198Z,6.40
2022-09-15T17:15:50.896Z,7.68
2022-09-15T17:18:19.928Z,2.53
2022-09-15T17:20:49.445Z,4.82
2022-09-15T17:23:20.479Z,2.67
2022-09-15T17:25:53.029Z,4.20
2022-09-15T17:28:22.683Z,4.82
2022-09-15T17:30:51.998Z,5.93
2022-09-15T17:33:23.472Z,4.85
2022-09-15T17:35:52.870Z,2.83
2022-09-15T17:38:23.222Z,6.30
2022-09-15T17:40:52.653Z,3.72
2022-09-15T17:43:22.042Z,3.88
2022-09-15T17:45:51.391Z,5.05
2022-09-15T17:48:19.817Z,5.30
2022-09-15T17:50:49.706Z,4.72
2022-09-15T17:53:21.221Z,3.58
2022-09-15T17:55:51.274Z,7.97
2022-09-15T17:58:19.787Z,4.85
2022-09-15T18:00:49.053Z,4.40
2022-09-15T18:03:20.499Z,4.63
2022-09-15T18:05:49.062Z,4.47
2022-09-15T18:08:17.614Z,3.65
2022-09-15T18:10:46.203Z,4.05
2022-09-15T18:13:17.425Z,5.32
2022-09-15T18:15:45.859Z,5.70
2022-09-15T18:18:15.689Z,6.03
2022-09-15T18:20:44.590Z,7.28
2022-09-15T18:23:16.569Z,6.95
2022-09-15T18:25:47.012Z,3.60
2022-09-15T18:28:16.966Z,5.60
2022-09-15T18:30:46.513Z,6.45
2022-09-15T18:33:15.743Z,3.63
2022-09-15T18:35:46.031Z,3.45
2022-09-15T18:38:14.694Z,4.38
2022-09-15T18:40:46.714Z,5.05
2022-09-15T18:43:15.208Z,4.57
2022-09-15T18:45:44.960Z,5.13
2022-09-15T18:48:13.763Z,6.03
2022-09-15T18:50:42.665Z,7.22
2022-09-15T18:53:11.504Z,5.78
2022-09-15T18:55:42.107Z,2.95
2022-09-15T18:58:10.500Z,3.15
2022-09-15T19:00:38.942Z,5.32
2022-09-15T19:03:09.466Z,4.53
2022-09-15T19:05:38.670Z,6.75
2022-09-15T19:08:08.467Z,4.55
2022-09-15T19:10:38.364Z,5.13
2022-09-15T19:13:06.722Z,3.92
2022-09-15T19:15:35.404Z,3.75
2022-09-15T19:18:03.856Z,4.78
2022-09-15T19:20:34.934Z,3.75
2022-09-15T19:23:03.296Z,6.35
2022-09-15T19:25:31.839Z,3.85
2022-09-15T19:28:00.199Z,4.25
2022-09-15T19:30:28.753Z,5.70
2022-09-15T19:32:57.107Z,3.15
2022-09-15T19:35:25.639Z,5.93
2022-09-15T19:37:55.389Z,3.00
2022-09-15T19:40:23.983Z,5.15
2022-09-15T19:42:52.377Z,5.63
2022-09-15T19:45:20.983Z,3.78
2022-09-15T19:47:49.384Z,5.68
2022-09-15T19:50:17.788Z,6.38
2022-09-15T19:52:46.183Z,8.63
2022-09-15T19:55:18.065Z,7.35
2022-09-15T19:57:46.506Z,7.03
2022-09-15T20:00:16.144Z,5.55
2022-09-15T20:02:44.566Z,4.60
2022-09-15T20:05:12.915Z,7.72
2022-09-15T20:07:41.329Z,5.50
2022-09-15T20:10:10.117Z,4.95
2022-09-15T20:12:39.881Z,8.13
2022-09-15T20:15:08.811Z,4.80
2022-09-15T20:17:41.657Z,4.15
2022-09-15T20:20:11.398Z,5.43
2022-09-15T20:22:39.753Z,6.18
2022-09-15T20:25:08.331Z,7.07
2022-09-15T20:27:37.058Z,6.88
2022-09-15T20:30:08.056Z,5.57
2022-09-15T20:32:36.437Z,7.95
2022-09-15T20:35:04.959Z,9.70
2022-09-15T20:37:37.518Z,5.88
2022-09-15T20:40:06.921Z,4.50
2022-09-15T20:42:35.336Z,6.97
2022-09-15T20:45:03.790Z,4.60
2022-09-15T20:47:33.543Z,5.07
2022-09-15T20:50:01.901Z,6.50
2022-09-15T20:52:36.015Z,5.25
2022-09-15T20:55:06.886Z,2.53
2022-09-15T20:57:35.446Z,5.68
2022-09-15T21:00:06.281Z,5.32
2022-09-15T21:02:36.348Z,8.48
2022-09-15T21:05:04.854Z,4.03
2022-09-15T21:07:33.296Z,5.15
2022-09-15T21:10:02.008Z,6.53
2022-09-15T21:12:30.740Z,9.77
2022-09-15T21:14:59.404Z,5.47
2022-09-15T21:17:29.888Z,4.57
2022-09-15T21:19:59.803Z,4.72
2022-09-15T21:22:28.349Z,6.60
2022-09-15T21:24:58.178Z,4.07
2022-09-15T21:27:30.716Z,5.30
2022-09-15T21:30:02.182Z,4.28
2022-09-15T21:32:30.706Z,2.83
2022-09-15T21:35:00.417Z,4.72
2022-09-15T21:37:29.015Z,4.38
2022-09-15T21:39:57.729Z,4.90
2022-09-15T21:42:26.759Z,7.07
2022-09-15T21:44:55.593Z,6.25
2022-09-15T21:47:24.040Z,4.65
2022-09-15T21:49:52.873Z,2.65
2022-09-15T21:52:22.663Z,4.95
2022-09-15T21:54:51.109Z,6.15
2022-09-15T21:57:19.501Z,6.55
2022-09-15T21:59:47.988Z,5.05
2022-09-15T22:02:17.563Z,3.90
2022-09-15T22:04:46.557Z,8.63
2022-09-15T22:07:19.540Z,4.20
2022-09-15T22:09:49.655Z,3.85
2022-09-15T22:12:18.032Z,5.30
2022-09-15T22:14:46.427Z,3.67
2022-09-15T22:17:15.125Z,2.67
2022-09-15T22:19:43.495Z,4.18
2022-09-15T22:22:12.007Z,2.53
2022-09-15T22:24:40.606Z,3.30
2022-09-15T22:27:10.437Z,6.20
2022-09-15T22:29:38.826Z,5.22
2022-09-15T22:32:07.323Z,4.40
2022-09-15T22:34:35.742Z,8.50
2022-09-15T22:37:04.156Z,4.18
2022-09-15T22:39:57.520Z,2.80
2022-09-15T22:42:22.334Z,4.75
2022-09-15T22:44:51.061Z,4.00
2022-09-15T22:47:19.622Z,6.20
2022-09-15T22:49:47.981Z,6.82
2022-09-15T22:52:16.341Z,2.92
2022-09-15T22:54:44.679Z,4.22
2022-09-15T22:57:13.041Z,4.88
2022-09-15T22:59:42.741Z,4.35
2022-09-15T23:02:11.358Z,4.32
2022-09-15T23:04:39.929Z,5.50
2022-09-15T23:07:08.302Z,5.35
2022-09-15T23:09:36.655Z,4.93
2022-09-15T23:12:05.130Z,3.75
2022-09-15T23:14:33.435Z,4.40
2022-09-15T23:17:03.209Z,5.75
2022-09-15T23:19:31.553Z,8.32
2022-09-15T23:21:59.934Z,2.45
2022-09-15T23:24:28.277Z,3.53
2022-09-15T23:26:56.637Z,7.63
2022-09-15T23:29:26.290Z,2.78
2022-09-15T23:31:54.841Z,5.85
2022-09-15T23:34:24.708Z,2.95
2022-09-15T23:36:53.152Z,3.42
2022-09-15T23:39:21.559Z,5.97
2022-09-15T23:41:49.943Z,8.00
2022-09-15T23:44:18.345Z,3.42
2022-09-15T23:46:46.799Z,4.10
2022-09-15T23:49:18.587Z,5.25
2022-09-15T23:51:48.862Z,3.95
2022-09-15T23:54:17.418Z,5.97
2022-09-15T23:56:45.769Z,3.28
2022-09-15T23:59:14.260Z,4.07
